Time;durP1;ratioP1;P1;durP2;ratioP2;P2;SDS_P1;SDS_P2;PMS_P1;PMS_P2;Temp;Humidity;BMP_temperature;BMP_pressure;BME280_temperature;BME280_humidity;BME280_pressure;Samples;Min_cycle;Max_cycle;Signal;HPM_P1;HPM_P2
2024/04/13 00:00:43;;;;;;;14.40;7.33;;;21.80;72.70;;;;;;5440367;26;20317;-74
2024/04/13 00:03:15;;;;;;;9.73;6.13;;;21.80;72.70;;;;;;5437431;26;20270;-76
2024/04/13 00:05:43;;;;;;;11.63;5.50;;;21.80;73.00;;;;;;5443310;26;20235;-76
2024/04/13 00:08:10;;;;;;;8.43;4.57;;;22.00;73.40;;;;;;5447730;26;20328;-76
2024/04/13 00:10:38;;;;;;;10.60;5.37;;;22.10;71.80;;;;;;5448208;26;20266;-76
2024/04/13 00:13:05;;;;;;;11.30;4.47;;;22.30;71.70;;;;;;5440273;26;20292;-76
2024/04/13 00:15:33;;;;;;;8.90;3.93;;;22.30;70.90;;;;;;5436477;26;20233;-75
2024/04/13 00:18:00;;;;;;;9.63;3.80;;;22.30;71.00;;;;;;5446836;26;20647;-75
2024/04/13 00:20:27;;;;;;;10.60;3.87;;;22.60;70.50;;;;;;5453363;26;20559;-75
2024/04/13 00:22:55;;;;;;;7.83;3.30;;;22.80;70.20;;;;;;5451284;26;20259;-73
2024/04/13 00:25:23;;;;;;;8.63;2.90;;;22.80;69.90;;;;;;5448892;26;20328;-75
2024/04/13 00:27:51;;;;;;;7.37;2.37;;;22.90;68.20;;;;;;5444793;26;20244;-75
2024/04/13 00:30:18;;;;;;;10.17;2.30;;;23.00;68.00;;;;;;5437230;26;20228;-76
2024/04/13 00:32:46;;;;;;;12.43;2.53;;;23.30;68.00;;;;;;5449368;26;20232;-76
2024/04/13 00:35:13;;;;;;;6.13;2.47;;;23.30;67.40;;;;;;5450688;26;20458;-75
2024/04/13 00:37:40;;;;;;;13.50;3.10;;;23.20;67.30;;;;;;5450486;26;20232;-75
2024/04/13 00:40:08;;;;;;;9.13;2.93;;;23.10;67.30;;;;;;5441189;26;21974;-74
2024/04/13 00:42:36;;;;;;;9.23;2.37;;;23.00;67.80;;;;;;5445815;26;20236;-76
2024/04/13 00:45:03;;;;;;;8.97;2.57;;;23.10;66.90;;;;;;5440218;26;20740;-75
2024/04/13 00:47:35;;;;;;;9.37;2.83;;;23.10;67.00;;;;;;5435502;26;20228;-73
2024/04/13 00:50:13;;;;;;;8.17;2.40;;;23.20;67.10;;;;;;5437088;26;20333;-77
2024/04/13 00:52:43;;;;;;;10.33;2.50;;;23.50;66.90;;;;;;5490761;26;20563;-75
2024/04/13 00:55:15;;;;;;;11.93;2.57;;;23.40;66.20;;;;;;5440959;26;20279;-75
2024/04/13 00:57:44;;;;;;;9.33;2.60;;;23.60;65.80;;;;;;5439494;26;20342;-76
2024/04/13 01:00:19;;;;;;;12.73;2.40;;;23.80;66.00;;;;;;5447079;26;20318;-77
2024/04/13 01:02:47;;;;;;;8.93;2.50;;;24.00;65.30;;;;;;5447299;26;20289;-75
2024/04/13 01:05:14;;;;;;;7.23;2.97;;;24.10;64.30;;;;;;5442257;26;20316;-75
2024/04/13 01:07:45;;;;;;;7.60;1.90;;;24.10;64.50;;;;;;5450116;26;20232;-74
2024/04/13 01:10:16;;;;;;;6.13;2.20;;;24.20;63.90;;;;;;5434656;26;20565;-75
2024/04/13 01:12:44;;;;;;;6.77;2.17;;;24.20;63.50;;;;;;5434574;26;20276;-77
2024/04/13 01:15:13;;;;;;;7.67;2.27;;;24.40;62.40;;;;;;5444530;26;20232;-76
2024/04/13 01:17:41;;;;;;;7.53;2.07;;;24.30;62.60;;;;;;5444522;26;20280;-75
2024/04/13 01:20:09;;;;;;;8.07;2.00;;;24.40;61.80;;;;;;5443967;26;20232;-76
2024/04/13 01:22:42;;;;;;;7.43;2.53;;;24.70;63.20;;;;;;5438013;26;20286;-75
2024/04/13 01:25:10;;;;;;;10.67;1.93;;;24.90;62.00;;;;;;5444101;26;20576;-76
2024/04/13 01:27:38;;;;;;;8.30;2.33;;;24.90;60.00;;;;;;5445160;26;20346;-76
2024/04/13 01:30:09;;;;;;;7.57;1.90;;;25.00;62.10;;;;;;5448354;26;20239;-77
2024/04/13 01:32:36;;;;;;;5.23;1.80;;;25.10;59.30;;;;;;5445628;26;20560;-75
2024/04/13 01:35:14;;;;;;;4.73;1.40;;;25.10;58.80;;;;;;5445397;26;20240;-76
2024/04/13 01:37:42;;;;;;;4.33;1.30;;;25.30;58.00;;;;;;5446697;26;20239;-76
2024/04/13 01:40:10;;;;;;;7.30;2.00;;;25.20;57.00;;;;;;5434129;26;20244;-73
2024/04/13 01:42:41;;;;;;;5.77;1.87;;;24.90;57.30;;;;;;5445183;26;20235;-75
2024/04/13 01:45:11;;;;;;;6.73;1.87;;;24.90;57.40;;;;;;5450046;26;20738;-76
2024/04/13 01:47:40;;;;;;;6.40;1.90;;;25.30;57.90;;;;;;5447073;26;20240;-74
2024/04/13 01:50:12;;;;;;;6.73;1.87;;;25.60;56.30;;;;;;5440519;26;20340;-74
2024/04/13 01:52:39;;;;;;;10.83;2.50;;;25.80;54.40;;;;;;5444734;26;20283;-75
2024/04/13 01:55:07;;;;;;;8.83;2.63;;;25.70;58.20;;;;;;5450279;26;20718;-75
2024/04/13 01:57:34;;;;;;;12.17;2.80;;;25.60;59.80;;;;;;5440965;26;20292;-75
2024/04/13 02:00:02;;;;;;;10.60;3.47;;;25.20;61.40;;;;;;5444516;26;20775;-76
2024/04/13 02:02:29;;;;;;;10.00;3.13;;;24.70;64.00;;;;;;5437556;26;20233;-77
2024/04/13 02:04:58;;;;;;;14.10;4.33;;;24.50;64.70;;;;;;5496579;25;20236;-77
2024/04/13 02:07:25;;;;;;;6.63;2.50;;;24.30;65.10;;;;;;5443954;26;20284;-75
2024/04/13 02:09:55;;;;;;;6.63;2.93;;;24.10;65.40;;;;;;5454735;26;21505;-77
2024/04/13 02:12:26;;;;;;;10.13;2.97;;;24.00;65.70;;;;;;5450430;26;20328;-76
2024/04/13 02:14:54;;;;;;;13.20;2.97;;;23.90;66.40;;;;;;5435944;26;20283;-75
2024/04/13 02:17:24;;;;;;;6.40;2.63;;;23.90;65.90;;;;;;5437973;26;20557;-76
2024/04/13 02:19:51;;;;;;;6.13;2.50;;;23.70;66.40;;;;;;5437142;26;20240;-76
2024/04/13 02:22:19;;;;;;;10.93;2.80;;;23.80;66.60;;;;;;5443194;26;20641;-75
2024/04/13 02:24:46;;;;;;;12.17;3.13;;;23.80;66.70;;;;;;5445342;26;20236;-75
2024/04/13 02:27:17;;;;;;;11.20;2.77;;;24.00;67.20;;;;;;5448346;26;20630;-72
2024/04/13 02:29:48;;;;;;;9.40;2.73;;;24.30;65.70;;;;;;5440750;26;20233;-77
2024/04/13 02:32:15;;;;;;;13.53;3.00;;;24.20;65.60;;;;;;5435177;26;20228;-77
2024/04/13 02:34:42;;;;;;;7.03;2.60;;;23.90;66.10;;;;;;5447749;26;20269;-75
2024/04/13 02:37:10;;;;;;;7.03;2.50;;;23.70;66.90;;;;;;5444419;26;20392;-75
2024/04/13 02:39:37;;;;;;;7.60;2.57;;;23.30;67.90;;;;;;5446807;26;20285;-75
2024/04/13 02:42:05;;;;;;;10.57;2.57;;;23.20;68.80;;;;;;5439064;26;20379;-74
2024/04/13 02:44:33;;;;;;;6.87;2.43;;;23.50;69.10;;;;;;5434019;26;20286;-76
2024/04/13 02:47:03;;;;;;;9.43;2.80;;;23.80;67.40;;;;;;5443888;26;20228;-77
2024/04/13 02:49:32;;;;;;;6.50;2.17;;;23.70;67.70;;;;;;5452199;26;20629;-75
2024/04/13 02:51:59;;;;;;;6.63;2.40;;;23.50;67.80;;;;;;5444039;26;20628;-75
2024/04/13 02:54:27;;;;;;;8.60;2.53;;;23.30;67.90;;;;;;5438450;26;20415;-75
2024/04/13 02:56:54;;;;;;;10.10;2.53;;;23.30;68.30;;;;;;5442747;26;20305;-76
2024/04/13 02:59:21;;;;;;;8.40;2.77;;;23.10;68.70;;;;;;5438687;26;20291;-77
2024/04/13 03:01:49;;;;;;;7.50;2.73;;;23.00;69.00;;;;;;5451124;26;20275;-77
2024/04/13 03:04:16;;;;;;;5.27;2.00;;;23.40;68.60;;;;;;5443348;26;20240;-74
2024/04/13 03:06:44;;;;;;;12.87;3.17;;;23.90;67.20;;;;;;5449111;26;20286;-74
2024/04/13 03:09:14;;;;;;;6.30;2.30;;;24.50;65.90;;;;;;5447965;26;20236;-76
2024/04/13 03:11:42;;;;;;;11.40;2.70;;;24.70;65.40;;;;;;5450831;26;20620;-78
2024/04/13 03:14:11;;;;;;;8.30;2.50;;;25.10;64.20;;;;;;5439292;26;20237;-74
2024/04/13 03:16:38;;;;;;;6.83;2.03;;;25.50;62.60;;;;;;5458511;26;20559;-76
2024/04/13 03:19:08;;;;;;;7.47;2.00;;;25.90;61.20;;;;;;5445277;26;20785;-74
2024/04/13 03:21:36;;;;;;;8.57;2.60;;;25.80;60.60;;;;;;5446922;26;20276;-76
2024/04/13 03:24:04;;;;;;;6.63;2.07;;;26.10;59.90;;;;;;5442932;26;20286;-75
2024/04/13 03:26:31;;;;;;;6.97;2.37;;;26.50;58.80;;;;;;5432287;26;20229;-75
2024/04/13 03:29:01;;;;;;;7.83;2.13;;;26.10;59.90;;;;;;5444636;26;20370;-76
2024/04/13 03:31:29;;;;;;;7.97;2.70;;;26.40;59.80;;;;;;5488555;26;20313;-75
2024/04/13 03:34:02;;;;;;;7.43;2.37;;;26.80;57.00;;;;;;5447374;26;20396;-77
2024/04/13 03:36:31;;;;;;;7.87;1.90;;;27.10;57.10;;;;;;5433489;26;20276;-76
2024/04/13 03:39:07;;;;;;;7.33;2.13;;;27.50;56.70;;;;;;5448596;26;20554;-76
2024/04/13 03:41:35;;;;;;;9.33;2.23;;;27.40;56.00;;;;;;5442814;26;20279;-76
2024/04/13 03:44:03;;;;;;;6.20;2.03;;;27.80;55.30;;;;;;5442123;26;20245;-75
2024/04/13 03:46:32;;;;;;;8.47;2.57;;;27.30;55.50;;;;;;5453751;26;20313;-75
2024/04/13 03:48:59;;;;;;;7.30;2.47;;;26.80;57.20;;;;;;5454521;26;20236;-76
2024/04/13 03:51:28;;;;;;;6.73;2.00;;;26.50;58.20;;;;;;5438029;26;20279;-78
2024/04/13 03:53:57;;;;;;;7.90;2.13;;;27.20;56.40;;;;;;5440791;26;20735;-72
2024/04/13 03:56:32;;;;;;;8.50;2.30;;;26.90;56.70;;;;;;5434325;26;20240;-74
2024/04/13 03:59:00;;;;;;;6.47;1.77;;;27.20;56.60;;;;;;5447978;26;20239;-76
2024/04/13 04:01:28;;;;;;;5.80;2.50;;;26.90;57.20;;;;;;5435704;26;20255;-76
2024/04/13 04:03:55;;;;;;;8.43;2.17;;;26.80;57.20;;;;;;5439314;26;20299;-76
2024/04/13 04:06:22;;;;;;;6.57;2.10;;;27.40;56.00;;;;;;5432890;26;20553;-76
2024/04/13 04:08:50;;;;;;;6.63;2.10;;;27.80;54.00;;;;;;5446219;26;20300;-75
2024/04/13 04:11:17;;;;;;;7.17;1.80;;;28.10;53.50;;;;;;5440326;26;20727;-77
2024/04/13 04:13:46;;;;;;;7.27;2.10;;;28.70;52.10;;;;;;5445919;26;20288;-75
2024/04/13 04:16:13;;;;;;;10.23;2.10;;;28.40;52.70;;;;;;5447135;26;20715;-74
2024/04/13 04:18:43;;;;;;;7.30;1.90;;;28.40;52.50;;;;;;5443458;26;20240;-76
2024/04/13 04:21:11;;;;;;;7.70;2.10;;;29.10;50.60;;;;;;5435426;26;20282;-74
2024/04/13 04:23:40;;;;;;;2.63;1.60;;;28.80;51.50;;;;;;5447591;26;20240;-74
2024/04/13 04:26:08;;;;;;;5.80;1.90;;;28.50;52.30;;;;;;5443648;26;20727;-75
2024/04/13 04:28:36;;;;;;;5.82;1.85;;;28.80;51.70;;;;;;5445295;26;20296;-76
2024/04/13 04:31:17;;;;;;;8.45;2.28;;;29.30;50.70;;;;;;5444583;26;20243;-76
2024/04/13 04:33:45;;;;;;;6.03;1.98;;;29.60;50.10;;;;;;5437600;26;20232;-73
2024/04/13 04:36:12;;;;;;;8.40;1.97;;;29.60;49.90;;;;;;5449283;26;21893;-73
2024/04/13 04:38:43;;;;;;;6.87;1.90;;;28.60;51.80;;;;;;5442089;26;20321;-74
2024/04/13 04:41:11;;;;;;;6.10;1.60;;;28.00;53.30;;;;;;5447451;26;20236;-75
2024/04/13 04:43:39;;;;;;;8.70;2.20;;;28.90;51.90;;;;;;5442173;26;20329;-74
2024/04/13 04:46:08;;;;;;;7.33;2.17;;;28.80;52.30;;;;;;5451921;26;20282;-74
2024/04/13 04:48:36;;;;;;;4.70;2.03;;;28.00;52.90;;;;;;5447933;26;20248;-75
2024/04/13 04:51:04;;;;;;;5.63;2.07;;;28.30;52.80;;;;;;5443340;26;20367;-74
2024/04/13 04:53:32;;;;;;;5.43;1.90;;;28.70;51.80;;;;;;5446260;26;20248;-74
2024/04/13 04:55:59;;;;;;;6.65;1.92;;;28.80;52.30;;;;;;5448328;26;20324;-75
2024/04/13 04:58:26;;;;;;;6.67;2.33;;;29.30;50.30;;;;;;5446297;26;20561;-76
2024/04/13 05:00:54;;;;;;;7.07;1.70;;;28.80;51.80;;;;;;5449313;26;20234;-75
2024/04/13 05:03:21;;;;;;;3.93;1.80;;;28.70;52.60;;;;;;5445735;26;20232;-74
2024/04/13 05:05:49;;;;;;;5.90;1.80;;;29.20;52.40;;;;;;5449778;26;20315;-75
2024/04/13 05:08:16;;;;;;;5.47;1.60;;;28.90;51.20;;;;;;5448689;26;20235;-75
2024/04/13 05:10:44;;;;;;;5.07;2.07;;;28.80;51.90;;;;;;5445217;26;20274;-75
2024/04/13 05:13:11;;;;;;;8.53;2.73;;;29.30;51.80;;;;;;5450662;26;20271;-74
2024/04/13 05:15:39;;;;;;;6.40;1.50;;;29.40;49.60;;;;;;5434073;26;20241;-74
2024/04/13 05:18:07;;;;;;;6.13;1.80;;;29.30;50.40;;;;;;5446735;26;20276;-75
2024/04/13 05:20:36;;;;;;;4.77;1.80;;;28.80;51.40;;;;;;5451232;26;20328;-75
2024/04/13 05:23:05;;;;;;;4.82;1.80;;;28.10;52.60;;;;;;5447864;26;20235;-75
2024/04/13 05:25:32;;;;;;;6.30;1.63;;;27.90;53.80;;;;;;5449454;26;20734;-77
2024/04/13 05:28:00;;;;;;;6.07;2.10;;;29.20;50.90;;;;;;5439328;26;20229;-76
2024/04/13 05:30:28;;;;;;;9.10;2.20;;;29.10;50.60;;;;;;5451347;26;20361;-76
2024/04/13 05:32:55;;;;;;;3.85;1.42;;;29.10;50.80;;;;;;5436284;26;20559;-76
2024/04/13 05:35:22;;;;;;;2.93;1.50;;;29.80;48.30;;;;;;5454000;26;20224;-78
2024/04/13 05:37:50;;;;;;;5.15;1.65;;;30.20;46.90;;;;;;5453811;26;20244;-74
2024/04/13 05:40:17;;;;;;;9.05;1.70;;;29.50;49.50;;;;;;5455021;26;20220;-75
2024/04/13 05:42:45;;;;;;;5.80;1.80;;;29.30;51.00;;;;;;5451414;26;20708;-76
2024/04/13 05:45:12;;;;;;;6.57;1.50;;;28.90;51.90;;;;;;5455322;26;20220;-72
2024/04/13 05:47:41;;;;;;;6.03;2.03;;;27.70;53.80;;;;;;5454413;26;20232;-75
2024/04/13 05:50:08;;;;;;;4.87;1.80;;;27.30;55.80;;;;;;5455896;26;20341;-76
2024/04/13 05:52:39;;;;;;;6.63;1.77;;;26.10;58.20;;;;;;5453568;26;20271;-74
2024/04/13 05:55:07;;;;;;;7.43;1.77;;;25.50;60.60;;;;;;5456749;26;20248;-75
2024/04/13 05:57:35;;;;;;;9.97;2.00;;;24.90;61.40;;;;;;5457399;26;20262;-73
2024/04/13 06:00:03;;;;;;;8.17;2.17;;;24.50;63.90;;;;;;5458926;26;20228;-75
2024/04/13 06:02:30;;;;;;;9.30;2.07;;;25.40;61.70;;;;;;5452020;26;20274;-75
2024/04/13 06:04:57;;;;;;;5.13;1.97;;;25.60;60.70;;;;;;5451199;26;20240;-75
2024/04/13 06:07:26;;;;;;;5.20;1.53;;;25.10;62.30;;;;;;5457176;26;20232;-76
2024/04/13 06:09:53;;;;;;;5.90;2.00;;;24.70;63.40;;;;;;5458037;26;20652;-73
2024/04/13 06:12:20;;;;;;;5.40;1.27;;;24.40;64.50;;;;;;5459615;26;20248;-73
2024/04/13 06:14:51;;;;;;;9.10;1.83;;;24.10;65.20;;;;;;5460043;26;20348;-75
2024/04/13 06:17:19;;;;;;;6.77;2.13;;;23.80;66.70;;;;;;5450985;26;20231;-77
2024/04/13 06:19:47;;;;;;;7.70;1.93;;;24.30;66.20;;;;;;5446380;26;20220;-75
2024/04/13 06:22:20;;;;;;;4.57;1.70;;;25.70;62.80;;;;;;5442175;26;20344;-75
2024/04/13 06:24:50;;;;;;;5.70;1.70;;;26.40;59.50;;;;;;5450262;26;20276;-74
2024/04/13 06:27:18;;;;;;;4.83;1.63;;;25.80;61.30;;;;;;5452264;26;20283;-76
2024/04/13 06:29:50;;;;;;;6.50;2.10;;;25.20;62.90;;;;;;5454874;26;20228;-75
2024/04/13 06:32:18;;;;;;;5.80;2.20;;;25.20;62.70;;;;;;5452337;26;20228;-75
2024/04/13 06:34:46;;;;;;;7.20;1.90;;;25.60;63.00;;;;;;5450619;26;20305;-76
2024/04/13 06:37:17;;;;;;;10.43;2.17;;;26.00;60.80;;;;;;5447932;26;20297;-76
2024/04/13 06:39:44;;;;;;;6.97;2.20;;;26.20;61.20;;;;;;5454976;26;20569;-76
2024/04/13 06:42:12;;;;;;;7.13;1.97;;;26.00;60.10;;;;;;5454123;26;20228;-76
2024/04/13 06:44:39;;;;;;;11.40;2.50;;;25.10;62.90;;;;;;5457005;26;20236;-78
2024/04/13 06:47:06;;;;;;;6.20;2.00;;;24.40;65.30;;;;;;5455258;26;20323;-77
2024/04/13 06:49:34;;;;;;;6.23;2.30;;;24.20;66.90;;;;;;5453859;26;20228;-75
2024/04/13 06:52:01;;;;;;;7.17;2.10;;;23.80;67.70;;;;;;5446365;26;20233;-75
2024/04/13 06:54:28;;;;;;;12.53;2.33;;;23.50;69.20;;;;;;5456322;26;20236;-75
2024/04/13 06:56:56;;;;;;;7.67;2.23;;;23.50;69.60;;;;;;5456093;26;20283;-76
2024/04/13 06:59:23;;;;;;;10.10;2.60;;;23.40;70.30;;;;;;5452579;26;20288;-75
2024/04/13 07:01:52;;;;;;;7.73;2.07;;;23.30;70.00;;;;;;5454114;26;20228;-74
2024/04/13 07:04:20;;;;;;;8.70;2.47;;;23.20;70.80;;;;;;5452826;26;20292;-76
2024/04/13 07:06:49;;;;;;;10.30;2.70;;;22.90;71.70;;;;;;5454286;26;20236;-72
2024/04/13 07:09:20;;;;;;;7.33;2.40;;;22.80;71.80;;;;;;5451060;26;20283;-76
2024/04/13 07:11:48;;;;;;;6.30;2.23;;;22.60;72.10;;;;;;5443257;26;20288;-77
2024/04/13 07:14:16;;;;;;;6.83;2.20;;;22.60;73.00;;;;;;5453757;26;20228;-75
2024/04/13 07:16:44;;;;;;;6.40;2.20;;;22.50;73.00;;;;;;5454057;26;20573;-76
2024/04/13 07:19:12;;;;;;;7.10;2.90;;;22.30;73.60;;;;;;5454444;26;20278;-75
2024/04/13 07:21:39;;;;;;;7.30;2.53;;;22.30;73.90;;;;;;5453420;26;20232;-77
2024/04/13 07:24:07;;;;;;;6.53;2.50;;;22.20;74.40;;;;;;5454729;26;20228;-76
2024/04/13 07:26:34;;;;;;;7.30;2.10;;;22.10;74.90;;;;;;5452269;26;20224;-78
2024/04/13 07:29:03;;;;;;;7.77;2.67;;;22.00;75.10;;;;;;5451060;26;20258;-77
2024/04/13 07:31:31;;;;;;;8.30;2.53;;;21.90;75.30;;;;;;5454490;26;20732;-75
2024/04/13 07:33:59;;;;;;;8.17;2.60;;;21.80;75.50;;;;;;5451591;26;20224;-73
2024/04/13 07:36:29;;;;;;;9.63;2.57;;;21.80;75.90;;;;;;5454031;26;20228;-77
2024/04/13 07:39:00;;;;;;;10.53;2.70;;;21.70;76.10;;;;;;5454495;26;20275;-77
2024/04/13 07:41:27;;;;;;;8.87;2.67;;;21.70;76.40;;;;;;5441663;26;20240;-76
2024/04/13 07:43:54;;;;;;;8.97;3.27;;;21.70;76.50;;;;;;5449789;26;20236;-77
2024/04/13 07:46:22;;;;;;;10.07;2.90;;;21.60;76.80;;;;;;5454826;26;20301;-76
2024/04/13 07:48:49;;;;;;;8.17;2.97;;;21.60;77.00;;;;;;5453980;26;20619;-77
2024/04/13 07:51:16;;;;;;;7.90;3.33;;;21.40;77.00;;;;;;5453449;26;20430;-78
2024/04/13 07:53:44;;;;;;;6.90;3.10;;;21.40;77.30;;;;;;5443084;26;20239;-76
2024/04/13 07:56:11;;;;;;;9.47;3.00;;;21.40;77.50;;;;;;5448261;26;20823;-77
2024/04/13 07:58:38;;;;;;;11.30;3.07;;;21.30;77.70;;;;;;5449784;26;20291;-78
2024/04/13 08:01:06;;;;;;;10.17;2.90;;;21.30;77.90;;;;;;5452595;26;20279;-77
2024/04/13 08:03:37;;;;;;;8.63;3.17;;;21.30;78.10;;;;;;5450379;26;20340;-76
2024/04/13 08:06:04;;;;;;;9.03;3.07;;;21.30;78.40;;;;;;5446649;26;20236;-78
2024/04/13 08:08:32;;;;;;;12.37;3.47;;;21.20;78.40;;;;;;5451842;26;20286;-76
2024/04/13 08:10:59;;;;;;;8.53;3.27;;;21.20;78.80;;;;;;5452405;26;20232;-76
2024/04/13 08:13:27;;;;;;;12.77;3.57;;;21.10;79.00;;;;;;5443597;26;20604;-78
2024/04/13 08:15:54;;;;;;;10.63;3.43;;;21.10;79.00;;;;;;5434001;26;20337;-76
2024/04/13 08:18:22;;;;;;;10.50;3.83;;;21.10;79.60;;;;;;5451919;26;20823;-76
2024/04/13 08:20:49;;;;;;;7.73;3.27;;;21.00;79.50;;;;;;5452977;26;20300;-76
2024/04/13 08:23:18;;;;;;;7.50;3.70;;;21.00;79.70;;;;;;5453110;26;20220;-76
2024/04/13 08:25:45;;;;;;;7.20;3.80;;;20.90;80.00;;;;;;5452933;26;20285;-78
2024/04/13 08:28:16;;;;;;;8.10;3.30;;;20.80;80.20;;;;;;5441887;26;20275;-76
2024/04/13 08:30:46;;;;;;;6.53;3.30;;;20.80;80.80;;;;;;5450564;26;20278;-76
2024/04/13 08:33:13;;;;;;;7.13;4.10;;;20.70;80.90;;;;;;5452766;26;20717;-77
2024/04/13 08:35:41;;;;;;;5.97;3.90;;;20.80;81.10;;;;;;5446752;26;20232;-77
2024/04/13 08:38:11;;;;;;;7.47;4.73;;;20.70;81.50;;;;;;5447196;26;20220;-75
2024/04/13 08:40:40;;;;;;;9.67;6.20;;;20.70;81.60;;;;;;5439370;26;20714;-75
2024/04/13 08:43:08;;;;;;;13.17;7.83;;;20.60;82.10;;;;;;5450974;26;20288;-76
2024/04/13 08:45:36;;;;;;;10.93;9.33;;;20.60;82.40;;;;;;5441595;26;20263;-76
2024/04/13 08:48:06;;;;;;;15.50;12.17;;;20.60;82.80;;;;;;5439793;26;20294;-77
2024/04/13 08:50:35;;;;;;;18.43;16.93;;;20.50;83.20;;;;;;5448270;26;20275;-76
2024/04/13 08:53:08;;;;;;;20.80;18.90;;;20.50;83.50;;;;;;5441532;26;20337;-77
2024/04/13 08:55:38;;;;;;;31.33;28.77;;;20.50;83.70;;;;;;5443531;26;20240;-77
2024/04/13 08:58:06;;;;;;;33.10;30.20;;;20.40;83.80;;;;;;5442089;26;20282;-77
2024/04/13 09:00:35;;;;;;;37.67;35.00;;;20.30;84.00;;;;;;5442457;26;20232;-76
2024/04/13 09:03:03;;;;;;;50.43;47.23;;;20.40;84.20;;;;;;5449116;26;20224;-76
2024/04/13 09:05:31;;;;;;;65.13;60.97;;;20.30;84.20;;;;;;5444555;26;20309;-76
2024/04/13 09:08:01;;;;;;;73.20;68.80;;;20.30;84.30;;;;;;5448915;26;20332;-77
2024/04/13 09:10:29;;;;;;;73.27;68.97;;;20.30;84.40;;;;;;5442534;26;20699;-77
2024/04/13 09:12:56;;;;;;;86.17;81.57;;;20.30;84.30;;;;;;5442644;26;20726;-77
2024/04/13 09:15:27;;;;;;;87.57;82.90;;;20.30;84.20;;;;;;5443274;26;20279;-76
2024/04/13 09:17:55;;;;;;;88.30;83.33;;;20.30;84.40;;;;;;5440494;26;20263;-75
2024/04/13 09:20:24;;;;;;;97.53;91.97;;;20.30;84.50;;;;;;5449430;26;20236;-77
2024/04/13 09:22:53;;;;;;;97.03;91.37;;;20.20;84.40;;;;;;5443110;26;20296;-78
2024/04/13 09:25:21;;;;;;;99.97;94.60;;;20.20;84.50;;;;;;5453907;26;20271;-75
2024/04/13 09:28:05;;;;;;;104.13;98.30;;;20.20;84.60;;;;;;5447656;26;20228;-77
2024/04/13 09:30:35;;;;;;;108.00;102.17;;;20.20;84.50;;;;;;5451368;26;20702;-77
2024/04/13 09:33:06;;;;;;;96.00;90.87;;;20.20;84.70;;;;;;5451240;26;20270;-76
2024/04/13 09:35:34;;;;;;;108.37;102.10;;;20.10;84.70;;;;;;5454592;26;20228;-79
2024/04/13 09:38:03;;;;;;;104.13;98.27;;;20.10;84.60;;;;;;5451201;26;20240;-78
2024/04/13 09:40:34;;;;;;;110.23;103.47;;;20.10;84.80;;;;;;5443064;26;20235;-77
2024/04/13 09:43:03;;;;;;;121.30;114.87;;;20.00;84.90;;;;;;5451272;26;20231;-76
2024/04/13 09:45:31;;;;;;;124.73;117.83;;;20.00;84.90;;;;;;5445232;26;20768;-77
2024/04/13 09:48:03;;;;;;;120.87;114.20;;;20.00;85.00;;;;;;5447006;26;20226;-75
2024/04/13 09:50:31;;;;;;;114.70;108.07;;;20.00;85.00;;;;;;5451983;26;20702;-78
2024/04/13 09:53:01;;;;;;;119.17;112.80;;;20.00;85.00;;;;;;5441090;26;20283;-76
2024/04/13 09:55:28;;;;;;;122.43;115.83;;;19.90;85.10;;;;;;5442157;26;20282;-77
2024/04/13 09:57:57;;;;;;;131.53;124.03;;;19.90;85.30;;;;;;5448087;26;20281;-75
2024/04/13 10:00:24;;;;;;;128.27;121.33;;;19.90;85.30;;;;;;5448027;26;20331;-73
2024/04/13 10:03:01;;;;;;;118.47;111.53;;;19.90;85.40;;;;;;5441521;26;20235;-76
2024/04/13 10:05:33;;;;;;;117.73;110.80;;;19.90;85.40;;;;;;5445902;26;20765;-76
2024/04/13 10:08:01;;;;;;;122.57;115.80;;;20.00;85.30;;;;;;5452083;26;20282;-77
2024/04/13 10:10:30;;;;;;;116.23;109.33;;;19.90;85.20;;;;;;5455728;26;20271;-76
2024/04/13 10:12:58;;;;;;;123.93;116.70;;;20.00;85.20;;;;;;5439802;26;20241;-77
2024/04/13 10:15:26;;;;;;;119.67;112.63;;;20.00;85.20;;;;;;5455831;26;20317;-77
2024/04/13 10:17:54;;;;;;;125.27;118.03;;;19.90;85.10;;;;;;5451547;26;20232;-77
2024/04/13 10:20:22;;;;;;;122.70;115.27;;;20.00;85.00;;;;;;5456422;26;20244;-77
2024/04/13 10:22:58;;;;;;;116.37;109.50;;;19.90;84.90;;;;;;5455251;26;20317;-77
2024/04/13 10:25:33;;;;;;;117.63;110.80;;;19.90;84.90;;;;;;5455103;26;20274;-78
2024/04/13 10:28:20;;;;;;;120.37;113.27;;;19.90;84.80;;;;;;5445617;26;20236;-77
2024/04/13 10:31:00;;;;;;;120.83;113.73;;;19.90;84.70;;;;;;5452527;26;20266;-77
2024/04/13 10:33:32;;;;;;;114.23;107.37;;;19.90;84.40;;;;;;5454561;26;20334;-78
2024/04/13 10:36:02;;;;;;;116.60;110.13;;;19.90;84.40;;;;;;5453411;26;20240;-76
2024/04/13 10:38:32;;;;;;;112.10;105.13;;;19.90;84.30;;;;;;5457841;26;20236;-77
2024/04/13 10:41:01;;;;;;;104.60;98.53;;;19.90;84.20;;;;;;5454442;26;20761;-79
2024/04/13 10:43:30;;;;;;;110.07;103.93;;;19.90;84.10;;;;;;5431238;26;20308;-77
2024/04/13 10:46:03;;;;;;;108.20;101.60;;;19.90;83.90;;;;;;5449933;26;20236;-78
2024/04/13 10:48:33;;;;;;;105.50;99.53;;;20.00;83.80;;;;;;5455061;26;20232;-77
2024/04/13 10:51:04;;;;;;;102.97;97.17;;;19.90;83.70;;;;;;5451461;26;20244;-77
2024/04/13 10:53:34;;;;;;;97.37;91.50;;;19.90;83.60;;;;;;5447196;26;20774;-77
2024/04/13 10:56:02;;;;;;;97.27;91.10;;;19.90;83.40;;;;;;5445998;26;20712;-77
2024/04/13 10:58:32;;;;;;;91.70;86.33;;;19.90;83.30;;;;;;5442630;26;20301;-77
2024/04/13 11:01:00;;;;;;;93.60;88.30;;;19.90;83.30;;;;;;5448959;26;20304;-79
2024/04/13 11:03:29;;;;;;;100.67;94.57;;;19.90;83.10;;;;;;5451561;26;20229;-77
2024/04/13 11:06:03;;;;;;;87.30;82.47;;;19.90;83.10;;;;;;5445066;26;20344;-78
2024/04/13 11:08:30;;;;;;;92.97;87.57;;;20.00;83.00;;;;;;5448565;26;20360;-78
2024/04/13 11:11:00;;;;;;;93.97;88.83;;;20.00;83.00;;;;;;5451400;26;20276;-78
2024/04/13 11:13:30;;;;;;;93.40;87.83;;;19.90;83.00;;;;;;5433151;26;20257;-77
2024/04/13 11:16:03;;;;;;;94.37;88.63;;;19.90;82.80;;;;;;5450583;26;20237;-76
2024/04/13 11:18:31;;;;;;;93.60;88.07;;;19.90;82.80;;;;;;5462812;26;20232;-76
2024/04/13 11:21:04;;;;;;;89.10;84.17;;;19.90;82.70;;;;;;5449639;26;20714;-77
2024/04/13 11:23:34;;;;;;;94.13;88.70;;;19.80;82.70;;;;;;5457395;26;20706;-79
2024/04/13 11:26:02;;;;;;;99.70;94.03;;;19.80;82.90;;;;;;5452451;26;20252;-78
2024/04/13 11:28:33;;;;;;;104.20;98.40;;;19.80;83.00;;;;;;5456195;26;20250;-79
2024/04/13 11:31:01;;;;;;;102.00;96.13;;;19.80;83.00;;;;;;5453551;26;20714;-78
2024/04/13 11:33:30;;;;;;;106.73;100.53;;;19.80;83.20;;;;;;5450557;26;20299;-80
2024/04/13 11:35:58;;;;;;;100.77;94.97;;;19.80;82.90;;;;;;5456334;26;20275;-78
2024/04/13 11:38:37;;;;;;;93.23;87.97;;;19.80;82.90;;;;;;5457210;26;20236;-78
2024/04/13 11:41:06;;;;;;;95.30;89.70;;;19.80;82.70;;;;;;5450202;26;20228;-78
2024/04/13 11:43:34;;;;;;;93.50;88.17;;;19.70;82.70;;;;;;5447539;26;20282;-78
2024/04/13 11:46:01;;;;;;;90.43;85.00;;;19.80;82.70;;;;;;5496398;25;20239;-78
2024/04/13 11:48:31;;;;;;;86.27;81.07;;;19.80;82.60;;;;;;5448917;26;20236;-78
2024/04/13 11:51:01;;;;;;;91.50;86.47;;;19.80;82.30;;;;;;5439565;26;20298;-77
2024/04/13 11:53:28;;;;;;;89.43;84.73;;;19.80;82.10;;;;;;5445767;26;20237;-78
2024/04/13 11:56:07;;;;;;;86.10;81.13;;;19.80;81.90;;;;;;5443179;26;20275;-77
2024/04/13 11:58:34;;;;;;;88.97;84.00;;;19.80;81.90;;;;;;5441714;26;20300;-77
2024/04/13 12:01:05;;;;;;;92.80;87.43;;;19.80;81.90;;;;;;5449978;26;20251;-78
2024/04/13 12:03:32;;;;;;;93.23;88.07;;;19.70;81.90;;;;;;5448695;26;20344;-75
2024/04/13 12:06:00;;;;;;;84.83;79.77;;;19.70;82.10;;;;;;5450396;26;20231;-78
2024/04/13 12:08:27;;;;;;;95.60;90.27;;;19.60;82.20;;;;;;5443969;26;20238;-76
2024/04/13 12:10:57;;;;;;;98.90;93.43;;;19.50;82.20;;;;;;5451970;26;20224;-78
2024/04/13 12:13:28;;;;;;;98.50;92.87;;;19.50;82.40;;;;;;5449521;26;20295;-79
2024/04/13 12:15:58;;;;;;;109.57;103.30;;;19.50;82.50;;;;;;5447622;26;20248;-78
2024/04/13 12:18:30;;;;;;;103.93;98.10;;;19.50;82.60;;;;;;5439244;26;20294;-77
2024/04/13 12:20:58;;;;;;;109.47;103.27;;;19.60;82.60;;;;;;5449883;26;20722;-79
2024/04/13 12:23:27;;;;;;;106.97;101.17;;;19.50;82.50;;;;;;5452940;26;20244;-79
2024/04/13 12:25:55;;;;;;;110.87;104.43;;;19.50;82.70;;;;;;5445320;26;20240;-78
2024/04/13 12:28:22;;;;;;;109.50;103.37;;;19.50;82.70;;;;;;5452800;26;20300;-79
2024/04/13 12:30:50;;;;;;;106.70;101.00;;;19.50;82.80;;;;;;5450614;26;20228;-79
2024/04/13 12:33:17;;;;;;;111.43;105.50;;;19.60;82.70;;;;;;5441556;26;20229;-78
2024/04/13 12:35:48;;;;;;;114.77;108.63;;;19.50;82.60;;;;;;5460547;26;20282;-78
2024/04/13 12:38:18;;;;;;;116.00;109.87;;;19.40;82.70;;;;;;5433056;26;20262;-77
2024/04/13 12:40:46;;;;;;;113.27;107.27;;;19.40;82.80;;;;;;5461158;26;20710;-77
2024/04/13 12:43:13;;;;;;;112.50;106.33;;;19.30;82.90;;;;;;5451812;26;20275;-79